Time;durP1;ratioP1;P1;durP2;ratioP2;P2;SDS_P1;SDS_P2;PMS_P1;PMS_P2;Temp;Humidity;BMP_temperature;BMP_pressure;BME280_temperature;BME280_humidity;BME280_pressure;Samples;Min_cycle;Max_cycle;Signal;HPM_P1;HPM_P2
2022/11/13 00:02:04;;;;;;;43.78;20.15;;;;;;;12.71;90.60;100697.16;4146096;86;28638;-87
2022/11/13 00:08:24;;;;;;;39.23;19.48;;;;;;;12.88;89.53;100695.72;4123170;86;28604;-86
2022/11/13 00:14:47;;;;;;;43.45;20.77;;;;;;;12.68;89.76;100694.34;4146378;84;28563;-84
2022/11/13 00:21:17;;;;;;;45.08;20.52;;;;;;;12.67;90.07;100697.55;4146167;84;28564;-84
2022/11/13 00:27:36;;;;;;;42.43;20.23;;;;;;;12.58;90.93;100688.52;4146146;84;28629;-86
2022/11/13 00:33:59;;;;;;;42.95;20.37;;;;;;;12.66;90.41;100685.09;4146107;84;28533;-85
2022/11/13 00:40:19;;;;;;;40.80;19.85;;;;;;;12.88;89.08;100676.02;4146545;84;28531;-84
2022/11/13 00:46:38;;;;;;;42.05;20.17;;;;;;;12.55;89.70;100678.45;4146726;84;28531;-85
2022/11/13 00:52:58;;;;;;;46.20;20.45;;;;;;;12.73;88.81;100679.71;4147007;86;28610;-85
2022/11/13 00:59:18;;;;;;;44.63;21.80;;;;;;;12.77;88.70;100668.84;4149368;84;28510;-85
2022/11/13 01:05:41;;;;;;;45.12;21.80;;;;;;;12.55;89.62;100670.36;4146694;84;28559;-82
2022/11/13 01:12:01;;;;;;;48.78;21.65;;;;;;;12.58;89.76;100663.70;4146855;86;28575;-82
2022/11/13 01:18:20;;;;;;;48.73;21.27;;;;;;;12.06;92.68;100660.11;4146800;84;28523;-87
2022/11/13 01:24:40;;;;;;;48.80;22.32;;;;;;;12.31;91.38;100658.75;4145866;84;28548;-86
2022/11/13 01:30:59;;;;;;;51.13;22.70;;;;;;;12.39;91.60;100658.08;4146419;86;28494;-86
2022/11/13 01:37:19;;;;;;;41.23;20.12;;;;;;;12.53;90.16;100649.47;4145652;85;28508;-86
2022/11/13 01:43:39;;;;;;;46.45;21.15;;;;;;;12.22;91.50;100644.09;4145549;84;28571;-88
2022/11/13 01:50:01;;;;;;;47.88;21.30;;;;;;;12.36;90.66;100650.91;4146467;85;28551;-87
2022/11/13 01:56:21;;;;;;;48.30;22.13;;;;;;;12.57;89.60;100647.20;4204290;81;28545;-86
2022/11/13 02:02:42;;;;;;;50.00;22.45;;;;;;;12.56;89.60;100642.84;4275677;83;28544;-85
2022/11/13 02:09:04;;;;;;;48.63;22.85;;;;;;;12.22;90.93;100641.94;4275465;82;28508;-85
2022/11/13 02:15:26;;;;;;;46.83;21.62;;;;;;;12.31;91.40;100628.59;4278277;81;28621;-84
2022/11/13 02:22:05;;;;;;;50.95;23.75;;;;;;;12.59;89.98;100624.07;4306108;81;29025;-86
2022/11/13 02:28:25;;;;;;;52.83;23.65;;;;;;;12.24;91.51;100628.58;4307352;81;28530;-85
2022/11/13 02:34:44;;;;;;;51.02;23.47;;;;;;;12.52;90.30;100631.62;4307578;81;28482;-85
2022/11/13 02:41:04;;;;;;;50.83;22.73;;;;;;;12.34;90.94;100632.22;4305323;81;28576;-85
2022/11/13 02:47:24;;;;;;;49.30;22.15;;;;;;;12.27;90.85;100629.50;4303853;82;28529;-87
2022/11/13 02:53:44;;;;;;;50.28;22.35;;;;;;;12.09;91.39;100626.03;4302242;83;28995;-86
2022/11/13 03:00:05;;;;;;;50.17;22.37;;;;;;;11.95;92.08;100631.01;4230317;83;28556;-86
2022/11/13 03:06:27;;;;;;;50.25;22.17;;;;;;;12.06;91.96;100628.30;4230648;83;28543;-87
2022/11/13 03:12:47;;;;;;;52.55;23.70;;;;;;;11.80;93.07;100621.72;4230959;82;28595;-81
2022/11/13 03:19:07;;;;;;;56.80;24.57;;;;;;;12.35;89.56;100629.02;4231002;83;28561;-85
2022/11/13 03:25:27;;;;;;;50.38;21.48;;;;;;;12.46;89.92;100633.81;4231551;83;28478;-84
2022/11/13 03:31:47;;;;;;;49.15;22.25;;;;;;;12.46;89.41;100636.51;4231518;84;28510;-84
2022/11/13 03:38:06;;;;;;;51.75;22.22;;;;;;;12.36;89.88;100633.37;4231624;84;28562;-84
2022/11/13 03:44:26;;;;;;;51.92;22.37;;;;;;;12.16;90.45;100650.31;4220244;81;28535;-85
2022/11/13 03:50:51;;;;;;;49.67;22.30;;;;;;;12.36;90.04;100644.16;4219151;82;28561;-84
2022/11/13 03:57:11;;;;;;;56.10;22.33;;;;;;;12.20;90.41;100651.56;4216782;82;34427;-83
2022/11/13 04:03:30;;;;;;;58.30;23.42;;;;;;;12.24;90.03;100646.09;4251560;82;28524;-83
2022/11/13 04:09:50;;;;;;;51.13;22.25;;;;;;;12.44;88.90;100641.25;4263743;82;28560;-85
2022/11/13 04:16:09;;;;;;;49.98;20.85;;;;;;;12.39;88.90;100637.84;4259552;82;28478;-86
2022/11/13 04:22:29;;;;;;;52.73;21.52;;;;;;;12.29;89.14;100646.00;4215325;84;28548;-84
2022/11/13 04:28:49;;;;;;;52.15;21.20;;;;;;;12.16;90.04;100639.53;4216152;84;28476;-83
2022/11/13 04:35:10;;;;;;;50.28;21.45;;;;;;;12.22;89.78;100644.63;4271966;82;28586;-82
2022/11/13 04:48:08;;;;;;;52.53;21.60;;;;;;;12.24;89.34;100635.31;4356028;81;28556;-84
2022/11/13 04:54:28;;;;;;;51.80;21.05;;;;;;;11.88;90.83;100640.95;4356596;81;28539;-85
2022/11/13 05:00:47;;;;;;;50.55;20.75;;;;;;;11.77;92.03;100643.69;4356844;80;28552;-83
2022/11/13 05:07:07;;;;;;;45.60;19.00;;;;;;;11.13;95.96;100644.53;4349769;81;28507;-84
2022/11/13 05:13:33;;;;;;;46.40;20.08;;;;;;;11.06;96.61;100638.78;4284426;82;28511;-83
2022/11/13 05:19:53;;;;;;;;;;;;;;;11.37;95.72;100638.38;4290524;82;28514;-82
2022/11/13 05:26:13;;;;;;;49.38;21.12;;;;;;;11.29;95.48;100643.41;4284337;82;20256;-82
2022/11/13 05:32:32;;;;;;;57.88;21.68;;;;;;;11.53;94.70;100639.92;4284720;82;28629;-82
2022/11/13 05:38:52;;;;;;;53.78;21.07;;;;;;;11.95;92.60;100631.86;4284425;82;28536;-83
2022/11/13 05:45:12;;;;;;;55.55;21.48;;;;;;;12.09;91.85;100630.08;4277436;83;28509;-85
2022/11/13 05:51:33;;;;;;;56.77;21.87;;;;;;;12.16;91.25;100632.80;4262657;83;28540;-84
2022/11/13 05:57:53;;;;;;;49.55;20.12;;;;;;;12.24;90.54;100637.16;4297671;82;28550;-83
2022/11/13 06:04:13;;;;;;;54.10;20.23;;;;;;;12.08;91.24;100628.92;4255418;82;28576;-82
2022/11/13 06:10:32;;;;;;;49.03;20.10;;;;;;;12.05;90.75;100635.54;4216401;82;28583;-85
2022/11/13 06:16:52;;;;;;;49.08;19.48;;;;;;;12.19;89.61;100628.87;4235506;82;28525;-77
2022/11/13 06:23:12;;;;;;;43.02;18.30;;;;;;;12.03;89.75;100628.68;4237484;82;28595;-77
2022/11/13 06:29:31;;;;;;;44.85;18.42;;;;;;;12.11;89.41;100629.35;4223354;82;28573;-77
2022/11/13 06:35:51;;;;;;;43.33;17.77;;;;;;;12.13;89.11;100623.73;4182186;84;28498;-80
2022/11/13 06:42:11;;;;;;;46.80;16.90;;;;;;;12.06;89.69;100619.67;4306319;80;28502;-80
2022/11/13 06:48:33;;;;;;;48.05;18.37;;;;;;;11.93;90.38;100623.14;4306721;81;28547;-87
2022/11/13 06:54:53;;;;;;;40.10;16.77;;;;;;;12.00;90.47;100625.86;4341657;80;28604;-76
2022/11/13 07:01:20;;;;;;;39.00;15.15;;;;;;;11.95;90.31;100625.62;4372560;80;28492;-88
2022/11/13 07:07:41;;;;;;;34.33;14.45;;;;;;;12.12;89.01;100629.66;4337347;81;28591;-77
2022/11/13 07:14:01;;;;;;;36.63;14.63;;;;;;;12.05;87.98;100629.34;4211770;82;28522;-77
2022/11/13 07:27:36;;;;;;;;;;;;;;;;;;;;;
2022/11/13 08:01:28;;;;;;;34.43;15.03;;;;;;;12.81;83.46;100621.49;4208661;83;28619;-91
2022/11/13 08:07:59;;;;;;;33.90;15.25;;;;;;;12.77;82.72;100624.81;4176622;83;28581;-92
2022/11/13 08:15:00;;;;;;;;;;;;;;;;;;;;;
2022/11/13 08:21:05;;;;;;;34.83;14.90;;;;;;;12.52;83.25;100633.51;4223724;82;28599;-93
2022/11/13 08:27:30;;;;;;;31.77;14.25;;;;;;;12.82;81.87;100633.13;4179958;83;28565;-87
2022/11/13 08:33:55;;;;;;;33.30;15.88;;;;;;;12.82;81.48;100639.88;4174566;83;28614;-87
2022/11/13 08:40:15;;;;;;;33.83;14.75;;;;;;;12.69;82.52;100631.25;4188916;83;28503;-78
2022/11/13 08:46:35;;;;;;;31.55;14.55;;;;;;;13.00;80.83;100641.11;4186052;83;28598;-82
2022/11/13 08:52:56;;;;;;;35.48;15.60;;;;;;;12.99;80.22;100640.80;4197783;83;28510;-86
2022/11/13 08:59:15;;;;;;;31.73;14.10;;;;;;;12.19;82.49;100641.81;4207592;82;28507;-87
2022/11/13 09:05:36;;;;;;;29.30;14.15;;;;;;;12.78;81.73;100639.45;4215097;82;28521;-85
2022/11/13 09:11:56;;;;;;;32.75;15.58;;;;;;;12.92;80.89;100640.80;4237924;82;28541;-83
2022/11/13 09:18:17;;;;;;;32.17;15.43;;;;;;;13.43;79.06;100637.95;4234479;82;28527;-77
2022/11/13 09:24:41;;;;;;;41.40;18.25;;;;;;;13.02;79.91;100637.17;4250968;81;28582;-79
2022/11/13 09:31:05;;;;;;;33.20;15.05;;;;;;;13.61;78.27;100626.53;4276779;81;28539;-85
2022/11/13 09:37:33;;;;;;;36.23;15.70;;;;;;;12.77;80.40;100628.35;4268387;81;28529;-84
2022/11/13 09:44:00;;;;;;;35.20;15.53;;;;;;;12.48;81.92;100633.08;4249558;81;28538;-84
2022/11/13 09:50:28;;;;;;;;;;;;;;;12.50;83.59;100625.61;4291217;80;28588;-84
2022/11/13 09:57:27;;;;;;;32.67;14.40;;;;;;;12.39;83.49;100627.56;4240063;82;20280;-90
2022/11/13 10:11:11;;;;;;;33.35;15.13;;;;;;;12.35;85.00;100611.48;4078025;82;28589;-93
2022/11/13 10:17:49;;;;;;;33.48;15.60;;;;;;;12.76;84.01;100609.16;4225435;82;28542;-85
2022/11/13 10:24:27;;;;;;;37.55;16.42;;;;;;;13.43;80.74;100598.78;4256603;82;28568;-78
2022/11/13 10:31:38;;;;;;;44.23;19.80;;;;;;;13.21;81.43;100595.52;4266081;82;28604;-81
2022/11/13 10:38:08;;;;;;;38.50;17.52;;;;;;;13.67;78.08;100595.12;4208127;82;28508;-79
2022/11/13 10:44:32;;;;;;;40.40;18.50;;;;;;;14.11;76.17;100587.75;4238811;82;28530;-81
2022/11/13 10:51:01;;;;;;;38.55;17.48;;;;;;;14.28;75.65;100584.84;4240991;81;28548;-81
2022/11/13 10:57:33;;;;;;;41.55;17.95;;;;;;;12.90;79.25;100587.02;4237098;82;28521;-86
2022/11/13 11:03:53;;;;;;;43.52;18.40;;;;;;;13.02;79.44;100591.27;4260453;82;28561;-87
2022/11/13 11:10:27;;;;;;;49.38;19.45;;;;;;;13.43;79.80;100590.67;4268826;81;28527;-84
2022/11/13 11:16:48;;;;;;;44.60;19.57;;;;;;;13.36;79.84;100585.83;4263945;81;28545;-87
2022/11/13 11:23:55;;;;;;;38.92;17.70;;;;;;;13.53;78.47;100578.12;4281827;81;28539;-82
2022/11/13 11:30:25;;;;;;;41.80;18.60;;;;;;;13.26;80.37;100572.74;4281689;81;28482;-81
2022/11/13 11:36:56;;;;;;;43.50;19.65;;;;;;;13.66;79.65;100565.09;4246399;81;28568;-87
2022/11/13 11:43:26;;;;;;;38.63;18.37;;;;;;;14.20;75.61;100555.34;4260440;81;28580;-84
2022/11/13 11:49:50;;;;;;;44.83;20.68;;;;;;;14.60;75.16;100541.53;4257467;82;28511;-83
2022/11/13 11:56:27;;;;;;;45.90;21.57;;;;;;;14.84;72.62;100540.91;4228810;82;28486;-83
2022/11/13 12:03:25;;;;;;;47.13;21.77;;;;;;;14.91;71.91;100523.58;4211241;82;28598;-85
2022/11/13 12:10:16;;;;;;;46.55;21.90;;;;;;;14.95;71.48;100523.97;4162774;83;28585;-84
2022/11/13 12:17:26;;;;;;;41.35;21.23;;;;;;;14.97;71.31;100509.67;4209025;83;28542;-84
2022/11/13 12:24:20;;;;;;;44.88;21.87;;;;;;;14.42;71.85;100513.89;4110252;84;28565;-84
2022/11/13 12:31:14;;;;;;;42.83;21.77;;;;;;;14.29;73.49;100506.70;4193766;83;28540;-84
2022/11/13 12:38:10;;;;;;;41.98;20.88;;;;;;;13.71;76.81;100500.39;4206122;82;28549;-84
2022/11/13 12:44:39;;;;;;;41.48;19.35;;;;;;;13.37;78.58;100495.10;4115684;84;28519;-84
2022/11/13 12:51:02;;;;;;;45.00;21.13;;;;;;;14.06;76.13;100483.77;4134308;84;34784;-85
2022/11/13 12:57:24;;;;;;;43.60;22.93;;;;;;;13.78;77.58;100478.73;4166047;83;28550;-84
2022/11/13 13:04:08;;;;;;;38.38;19.90;;;;;;;13.47;80.29;100477.13;4235283;82;28601;-82
2022/11/13 13:10:50;;;;;;;43.00;21.70;;;;;;;13.05;81.52;100477.98;4182331;82;28547;-82
2022/11/13 13:17:18;;;;;;;49.80;24.12;;;;;;;14.07;78.90;100463.80;4202696;81;28536;-83
2022/11/13 13:23:46;;;;;;;44.15;22.48;;;;;;;13.01;81.44;100472.69;4197002;83;28459;-84
2022/11/13 13:30:25;;;;;;;46.83;22.98;;;;;;;12.67;85.60;100467.37;4219265;81;28537;-79
2022/11/13 13:37:17;;;;;;;48.33;22.77;;;;;;;12.58;86.63;100471.33;4189576;82;28529;-81
2022/11/13 13:43:51;;;;;;;40.25;19.37;;;;;;;12.85;85.67;100466.72;4197342;82;28576;-84
2022/11/13 13:50:16;;;;;;;38.65;19.62;;;;;;;12.65;85.65;100458.13;4200343;82;28598;-84
2022/11/13 13:56:41;;;;;;;36.45;19.02;;;;;;;12.60;86.02;100446.31;4210641;82;28588;-84
2022/11/13 14:03:02;;;;;;;35.48;18.10;;;;;;;13.09;84.02;100436.84;4139148;82;28637;-82
2022/11/13 14:09:28;;;;;;;38.25;19.17;;;;;;;12.88;83.36;100448.73;4133217;83;28560;-81
2022/11/13 14:15:48;;;;;;;;;;;;;;;12.80;85.78;100444.91;4133976;84;28560;-85
2022/11/13 14:22:12;;;;;;;33.95;17.15;;;;;;;13.32;81.96;100434.16;4125608;84;20237;-90
2022/11/13 14:28:35;;;;;;;35.80;18.50;;;;;;;12.94;84.27;100417.37;4108766;84;28586;-82
2022/11/13 14:35:11;;;;;;;33.13;17.37;;;;;;;13.02;83.03;100415.79;4118307;83;28598;-90
2022/11/13 14:41:53;;;;;;;37.90;19.20;;;;;;;13.08;82.93;100416.30;4078433;84;28532;-87
2022/11/13 14:48:24;;;;;;;34.58;18.25;;;;;;;13.00;83.68;100419.23;4105114;84;28524;-86
2022/11/13 14:54:44;;;;;;;31.80;16.50;;;;;;;13.10;82.63;100407.96;4112565;84;28957;-85
2022/11/13 15:01:18;;;;;;;31.17;17.17;;;;;;;12.83;83.25;100409.42;4138286;83;28538;-85
2022/11/13 15:07:41;;;;;;;36.65;18.35;;;;;;;12.96;83.77;100405.83;4190660;83;28559;-86
2022/11/13 15:14:10;;;;;;;33.42;17.85;;;;;;;12.99;83.53;100404.08;4155622;83;28616;-87
2022/11/13 15:20:33;;;;;;;33.35;17.45;;;;;;;12.84;83.94;100407.03;4157467;83;28621;-86
2022/11/13 15:27:05;;;;;;;32.55;18.00;;;;;;;12.81;84.44;100399.37;4169898;83;28522;-86
2022/11/13 15:33:23;;;;;;;33.50;17.57;;;;;;;12.61;85.86;100409.69;4190429;83;28519;-86
2022/11/13 15:39:45;;;;;;;29.00;16.37;;;;;;;12.36;87.32;100404.13;4193964;83;28563;-86
2022/11/13 15:46:16;;;;;;;32.23;17.23;;;;;;;12.15;88.43;100406.01;4183493;83;28507;-86
2022/11/13 15:52:39;;;;;;;34.63;18.57;;;;;;;11.90;91.10;100409.80;4190573;83;28528;-87
2022/11/13 15:59:14;;;;;;;36.17;18.30;;;;;;;11.74;94.11;100409.15;4171216;83;28543;-87
2022/11/13 16:05:26;;;;;;;35.28;18.87;;;;;;;11.52;95.15;100421.44;4210370;82;28496;-87
2022/11/13 16:11:48;;;;;;;33.42;18.30;;;;;;;11.26;97.22;100421.69;4208508;82;28523;-87
2022/11/13 16:18:13;;;;;;;36.03;19.07;;;;;;;11.63;95.89;100421.88;4220582;82;28551;-87
2022/11/13 16:24:42;;;;;;;36.63;18.90;;;;;;;12.02;93.43;100424.35;4199806;82;28565;-88
2022/11/13 16:31:09;;;;;;;36.60;18.90;;;;;;;11.49;95.09;100423.20;4193109;81;28553;-87
2022/11/13 16:37:30;;;;;;;34.08;18.67;;;;;;;11.73;94.81;100415.58;4198016;82;28530;-88
2022/11/13 16:43:56;;;;;;;39.60;19.65;;;;;;;12.05;91.24;100421.23;4221245;82;28527;-90
2022/11/13 16:50:21;;;;;;;41.18;19.40;;;;;;;11.88;92.33;100415.39;4217694;82;28632;-89
2022/11/13 16:56:49;;;;;;;47.03;21.57;;;;;;;11.95;93.16;100414.89;4210010;82;28548;-87
2022/11/13 17:03:08;;;;;;;48.25;21.42;;;;;;;12.25;90.76;100399.68;4210376;82;28559;-88
2022/11/13 17:09:37;;;;;;;49.38;23.35;;;;;;;11.64;93.30;100397.44;4205335;82;28517;-88
2022/11/13 17:16:06;;;;;;;51.25;22.48;;;;;;;11.87;93.75;100390.83;4187936;82;28523;-88
2022/11/13 17:22:25;;;;;;;44.27;21.07;;;;;;;12.19;91.96;100396.45;4166762;83;28953;-89
2022/11/13 17:28:50;;;;;;;45.40;21.23;;;;;;;11.67;94.16;100391.63;4189151;82;28537;-89
2022/11/13 17:35:16;;;;;;;51.18;23.22;;;;;;;11.79;94.22;100389.67;4196783;83;28510;-88
2022/11/13 17:41:39;;;;;;;;;;;;;;;12.05;93.55;100387.53;4129514;84;28814;-89
2022/11/13 17:48:05;;;;;;;48.15;22.50;;;;;;;11.96;93.68;100389.59;4151137;84;20579;-88
2022/11/13 17:54:28;;;;;;;50.08;24.25;;;;;;;11.97;93.92;100390.41;4183269;83;28596;-88
2022/11/13 18:00:51;;;;;;;47.83;22.80;;;;;;;11.68;96.06;100388.44;4116198;84;28544;-87
2022/11/13 18:07:13;;;;;;;55.08;24.92;;;;;;;11.86;95.56;100387.29;4215770;81;28545;-87
2022/11/13 18:13:40;;;;;;;58.08;25.88;;;;;;;12.12;93.25;100383.48;4209985;82;28537;-87
2022/11/13 18:20:07;;;;;;;59.18;27.58;;;;;;;11.92;94.58;100374.88;4214580;82;28545;-88
2022/11/13 18:26:31;;;;;;;62.13;26.68;;;;;;;11.74;97.17;100369.27;4257306;80;28519;-89
2022/11/13 18:33:02;;;;;;;55.38;25.27;;;;;;;12.26;93.32;100383.80;4211307;82;28520;-89
2022/11/13 18:39:35;;;;;;;62.15;26.35;;;;;;;11.95;94.44;100389.28;4206867;82;28554;-89
2022/11/13 18:46:05;;;;;;;52.90;24.82;;;;;;;12.35;93.23;100385.75;4201122;82;28940;-86
2022/11/13 18:52:38;;;;;;;57.48;26.80;;;;;;;12.05;93.90;100382.14;4189476;83;28600;-88
2022/11/13 18:59:06;;;;;;;58.15;26.40;;;;;;;11.48;98.43;100378.95;4208201;82;28524;-87
2022/11/13 19:05:25;;;;;;;55.03;26.73;;;;;;;11.46;98.67;100379.18;4261688;80;28602;-87
2022/11/13 19:11:49;;;;;;;61.18;27.27;;;;;;;11.14;100.00;100377.01;4250739;81;28654;-89
2022/11/13 19:18:12;;;;;;;59.40;27.65;;;;;;;11.48;99.88;100379.80;4235410;82;28527;-87
2022/11/13 19:24:35;;;;;;;64.17;29.50;;;;;;;10.80;100.00;100384.62;4224317;82;28582;-79
2022/11/13 19:30:59;;;;;;;62.83;27.50;;;;;;;11.10;100.00;100378.45;4251791;82;28558;-82
2022/11/13 19:37:19;;;;;;;62.17;27.67;;;;;;;11.11;100.00;100382.80;4258846;82;28563;-86
2022/11/13 19:43:40;;;;;;;65.97;29.90;;;;;;;11.74;98.78;100378.70;4198225;83;28555;-85
2022/11/13 19:56:31;;;;;;;68.45;29.65;;;;;;;11.79;98.23;100379.73;4172632;83;28579;-84
2022/11/13 20:02:57;;;;;;;62.58;27.58;;;;;;;11.90;96.79;100370.19;4229274;81;28589;-85
2022/11/13 20:09:20;;;;;;;63.40;29.18;;;;;;;11.36;97.44;100374.17;4072129;85;28528;-85
2022/11/13 20:15:42;;;;;;;69.85;29.35;;;;;;;11.36;100.00;100363.93;4224712;81;28517;-82
2022/11/13 20:22:03;;;;;;;63.23;27.20;;;;;;;11.30;100.00;100368.27;4199190;82;28549;-82
2022/11/13 20:28:29;;;;;;;71.30;29.00;;;;;;;11.00;100.00;100357.28;4198955;81;28524;-85
2022/11/13 20:34:49;;;;;;;65.55;29.15;;;;;;;11.02;100.00;100358.44;4179757;83;28575;-83
2022/11/13 20:41:10;;;;;;;69.45;28.55;;;;;;;10.87;100.00;100355.36;4168843;83;28528;-84
2022/11/13 20:47:34;;;;;;;67.42;28.65;;;;;;;10.64;100.00;100356.20;4152089;83;28520;-81
2022/11/13 20:55:04;;;;;;;;;;;;;;;;;;;;;
2022/11/13 21:00:51;;;;;;;67.10;27.37;;;;;;;10.39;100.00;100350.75;3692053;94;28558;-92
2022/11/13 21:07:13;;;;;;;63.87;27.02;;;;;;;10.90;100.00;100346.06;3748196;92;28545;-83
2022/11/13 21:13:36;;;;;;;64.50;28.38;;;;;;;11.16;100.00;100346.67;3927959;84;28591;-84
2022/11/13 21:20:01;;;;;;;70.12;29.40;;;;;;;11.28;100.00;100350.12;4142153;83;28684;-83
2022/11/13 21:26:20;;;;;;;67.95;27.80;;;;;;;11.13;100.00;100355.67;4141085;83;28538;-82
2022/11/13 21:32:45;;;;;;;67.50;28.25;;;;;;;11.01;100.00;100353.56;4126541;84;28538;-87
2022/11/13 21:39:05;;;;;;;76.87;29.20;;;;;;;10.94;100.00;100346.50;4138098;83;28524;-83
2022/11/13 21:45:25;;;;;;;68.97;27.98;;;;;;;10.74;100.00;100356.16;4134468;83;28540;-82
2022/11/13 21:51:45;;;;;;;71.07;27.32;;;;;;;11.16;100.00;100354.75;4132474;84;28559;-81
2022/11/13 21:58:04;;;;;;;74.62;27.60;;;;;;;10.79;100.00;100346.65;4132435;84;28585;-82
2022/11/13 22:04:45;;;;;;;70.70;26.45;;;;;;;10.79;100.00;100335.89;4139384;82;28559;-90
2022/11/13 22:11:03;;;;;;;73.25;27.32;;;;;;;11.04;100.00;100339.38;4175792;83;28480;-83
2022/11/13 22:17:22;;;;;;;69.70;27.17;;;;;;;10.73;100.00;100325.41;4197053;82;28564;-76
2022/11/13 22:23:45;;;;;;;69.75;26.40;;;;;;;10.70;100.00;100315.06;4203742;81;28530;-78
2022/11/13 22:30:05;;;;;;;69.87;26.68;;;;;;;10.64;100.00;100316.70;4197475;82;28529;-76
2022/11/13 22:36:29;;;;;;;74.37;26.87;;;;;;;10.95;100.00;100315.87;4174688;82;28577;-78
2022/11/13 22:42:55;;;;;;;60.43;24.07;;;;;;;11.19;100.00;100317.69;4180317;83;28617;-77
2022/11/13 22:49:15;;;;;;;56.55;22.25;;;;;;;11.41;100.00;100307.08;4188478;82;28574;-77
2022/11/13 22:55:37;;;;;;;50.48;20.25;;;;;;;11.57;100.00;100293.73;4169197;83;28545;-77
2022/11/13 23:01:57;;;;;;;46.20;18.60;;;;;;;11.04;100.00;100298.52;4178299;83;28520;-77
2022/11/13 23:08:17;;;;;;;43.13;17.42;;;;;;;11.39;100.00;100301.05;4167994;82;28563;-76
2022/11/13 23:14:36;;;;;;;35.20;15.55;;;;;;;11.63;100.00;100296.11;4183311;83;28560;-77
2022/11/13 23:20:56;;;;;;;34.83;14.70;;;;;;;11.68;98.92;100291.45;4175029;83;28551;-77
2022/11/13 23:27:16;;;;;;;29.40;12.53;;;;;;;12.10;96.18;100289.36;4177665;83;28626;-76
2022/11/13 23:33:37;;;;;;;31.60;14.20;;;;;;;11.70;97.76;100288.84;4177721;83;28562;-77
2022/11/13 23:39:56;;;;;;;28.90;13.08;;;;;;;11.19;100.00;100292.11;4157676;83;28559;-77
2022/11/13 23:46:16;;;;;;;33.08;14.18;;;;;;;10.79;100.00;100286.96;4176742;83;28555;-79
2022/11/13 23:52:36;;;;;;;34.13;14.10;;;;;;;10.92;100.00;100283.99;4179820;83;28545;-79
2022/11/13 23:58:55;;;;;;;32.08;14.28;;;;;;;10.79;100.00;100284.27;4149004;83;28552;-78
